SVR8253 UUDD-UTDD
Flight info
| Callsign | SVR8253 |
|---|---|
| Flight time | N/A |
| Altitude | 33000 |
| Route | TOGMO DCT UDAPO N50 LIDUS G242 AST/K0832F350 G242 BABUR N102 VADOD M875 INDUD Z777 RASID DCT SOPNO |
| Aircraft | A321/M-SDE3FGHIRWY/LB1 |
Departure
| Time | N/A |
|---|---|
| Airport | Domodedovo International Airport (UUDD) |
Arrival
| Time | 2026-04-23 16:55 |
|---|---|
| Airport | Dushanbe International Airport (UTDD) |
| Time | Latitude | Longitude | Altitude | Speed | Heading |
|---|---|---|---|---|---|
| 2026-04-23 16:44 | 38.43988 | 68.74132 | 5837 ft | 169 kts | 270° |
| 2026-04-23 16:45 | 38.44003 | 68.73117 | 5836 ft | 169 kts | 270° |
| 2026-04-23 16:45 | 38.44018 | 68.71616 | 5836 ft | 170 kts | 269° |
| 2026-04-23 16:45 | 38.44029 | 68.70115 | 5829 ft | 169 kts | 269° |
| 2026-04-23 16:45 | 38.44039 | 68.68635 | 5833 ft | 169 kts | 269° |
| 2026-04-23 16:46 | 38.44049 | 68.67139 | 5828 ft | 168 kts | 269° |
| 2026-04-23 16:46 | 38.44061 | 68.65623 | 5826 ft | 169 kts | 269° |
| 2026-04-23 16:46 | 38.44072 | 68.64146 | 5827 ft | 169 kts | 269° |
| 2026-04-23 16:46 | 38.44083 | 68.62648 | 5831 ft | 170 kts | 269° |
| 2026-04-23 16:47 | 38.44188 | 68.61147 | 5824 ft | 170 kts | 278° |
| 2026-04-23 16:47 | 38.44471 | 68.59691 | 5817 ft | 169 kts | 286° |
| 2026-04-23 16:47 | 38.44928 | 68.58308 | 5818 ft | 170 kts | 297° |
| 2026-04-23 16:47 | 38.45555 | 68.57029 | 5823 ft | 171 kts | 305° |
| 2026-04-23 16:48 | 38.46328 | 68.55879 | 5823 ft | 171 kts | 314° |
| 2026-04-23 16:48 | 38.47236 | 68.54892 | 5825 ft | 172 kts | 323° |
| 2026-04-23 16:48 | 38.48257 | 68.54098 | 5817 ft | 171 kts | 333° |
| 2026-04-23 16:48 | 38.49365 | 68.53518 | 5827 ft | 174 kts | 341° |
| 2026-04-23 16:49 | 38.50543 | 68.53165 | 5825 ft | 175 kts | 350° |
| 2026-04-23 16:49 | 38.51734 | 68.52908 | 5832 ft | 173 kts | 349° |
| 2026-04-23 16:49 | 38.52932 | 68.52747 | 5753 ft | 175 kts | 10° |
| 2026-04-23 16:49 | 38.53955 | 68.53482 | 5634 ft | 172 kts | 53° |
| 2026-04-23 16:50 | 38.54336 | 68.54888 | 5516 ft | 169 kts | 93° |
| 2026-04-23 16:50 | 38.54301 | 68.56392 | 5407 ft | 170 kts | 91° |
| 2026-04-23 16:50 | 38.54303 | 68.57908 | 5289 ft | 171 kts | 91° |
| 2026-04-23 16:50 | 38.54314 | 68.59421 | 5168 ft | 170 kts | 91° |
| 2026-04-23 16:51 | 38.54327 | 68.60921 | 5050 ft | 168 kts | 91° |
| 2026-04-23 16:51 | 38.54337 | 68.62406 | 4938 ft | 167 kts | 90° |
| 2026-04-23 16:51 | 38.54341 | 68.63898 | 4754 ft | 170 kts | 92° |
| 2026-04-23 16:51 | 38.54340 | 68.65433 | 4404 ft | 175 kts | 90° |
| 2026-04-23 16:52 | 38.54342 | 68.67005 | 4051 ft | 179 kts | 89° |
| 2026-04-23 16:52 | 38.54344 | 68.68613 | 3719 ft | 182 kts | 88° |
| 2026-04-23 16:52 | 38.54346 | 68.70224 | 3417 ft | 182 kts | 87° |
| 2026-04-23 16:52 | 38.54347 | 68.71832 | 3238 ft | 176 kts | 88° |
| 2026-04-23 16:53 | 38.54348 | 68.73330 | 3257 ft | 164 kts | 89° |
| 2026-04-23 16:53 | 38.54349 | 68.74772 | 3243 ft | 162 kts | 90° |
| 2026-04-23 16:53 | 38.54348 | 68.76170 | 3237 ft | 153 kts | 88° |
| 2026-04-23 16:53 | 38.54353 | 68.77495 | 3171 ft | 150 kts | 88° |
| 2026-04-23 16:54 | 38.54372 | 68.78817 | 2951 ft | 148 kts | 88° |
| 2026-04-23 16:54 | 38.54379 | 68.80131 | 2738 ft | 148 kts | 90° |
| 2026-04-23 16:54 | 38.54362 | 68.81432 | 2595 ft | 143 kts | 91° |
| 2026-04-23 16:54 | 38.54329 | 68.82580 | 2574 ft | 103 kts | 86° |
| 2026-04-23 16:55 | 38.54353 | 68.83112 | 2582 ft | 27 kts | 87° |
| 2026-04-23 16:55 | 38.54357 | 68.83634 | 2579 ft | 102 kts | 90° |
| 2026-04-23 16:55 | 38.54352 | 68.84834 | 2748 ft | 157 kts | 92° |
| 2026-04-23 16:55 | 38.54150 | 68.86315 | 2999 ft | 177 kts | 117° |
| 2026-04-23 16:56 | 38.53208 | 68.87275 | 3309 ft | 178 kts | 163° |
| 2026-04-23 16:56 | 38.51994 | 68.87166 | 3660 ft | 179 kts | 203° |
| 2026-04-23 16:56 | 38.50998 | 68.86107 | 3763 ft | 202 kts | 230° |
| 2026-04-23 16:56 | 38.50110 | 68.84555 | 3692 ft | 225 kts | 237° |
| 2026-04-23 16:57 | 38.49326 | 68.82811 | 4059 ft | 230 kts | 243° |
| 2026-04-23 16:57 | 38.48615 | 68.80951 | 4097 ft | 235 kts | 246° |
| 2026-04-23 16:57 | 38.47940 | 68.79057 | 3938 ft | 234 kts | 245° |
| 2026-04-23 16:57 | 38.47269 | 68.77179 | 4090 ft | 233 kts | 246° |
| 2026-04-23 16:58 | 38.46618 | 68.75311 | 4531 ft | 230 kts | 245° |
| 2026-04-23 16:58 | 38.45949 | 68.73456 | 4925 ft | 230 kts | 244° |
| 2026-04-23 16:58 | 38.45393 | 68.71537 | 5278 ft | 232 kts | 257° |
| 2026-04-23 16:58 | 38.45220 | 68.69478 | 5445 ft | 235 kts | 265° |
| 2026-04-23 16:59 | 38.45182 | 68.67402 | 5647 ft | 233 kts | 270° |
| 2026-04-23 16:59 | 38.45278 | 68.65363 | 6027 ft | 235 kts | 274° |
| 2026-04-23 16:59 | 38.45498 | 68.63295 | 6446 ft | 236 kts | 277° |
| 2026-04-23 16:59 | 38.45779 | 68.61228 | 6871 ft | 237 kts | 279° |
| 2026-04-23 17:00 | 38.46106 | 68.59175 | 7357 ft | 235 kts | 281° |
| 2026-04-23 17:00 | 38.46527 | 68.57143 | 7483 ft | 241 kts | 288° |
| 2026-04-23 17:00 | 38.47372 | 68.55291 | 6990 ft | 246 kts | 313° |
| 2026-04-23 17:00 | 38.48850 | 68.54116 | 6067 ft | 265 kts | 345° |
| 2026-04-23 17:01 | 38.50662 | 68.54271 | 5586 ft | 262 kts | 20° |
| 2026-04-23 17:01 | 38.52137 | 68.55637 | 4988 ft | 264 kts | 50° |
| 2026-04-23 17:01 | 38.52870 | 68.57777 | 4179 ft | 268 kts | 83° |
| 2026-04-23 17:01 | 38.52998 | 68.60057 | 3981 ft | 243 kts | 85° |
| 2026-04-23 17:02 | 38.53165 | 68.62161 | 4006 ft | 233 kts | 82° |
| 2026-04-23 17:02 | 38.53502 | 68.64161 | 4078 ft | 229 kts | 74° |
| 2026-04-23 17:02 | 38.53779 | 68.66155 | 4192 ft | 228 kts | 83° |
| 2026-04-23 17:02 | 38.53878 | 68.68184 | 4097 ft | 230 kts | 86° |
| 2026-04-23 17:03 | 38.53928 | 68.70168 | 3290 ft | 222 kts | 89° |
| 2026-04-23 17:03 | 38.53876 | 68.72091 | 2905 ft | 210 kts | 92° |
| 2026-04-23 17:03 | 38.53871 | 68.73939 | 2913 ft | 208 kts | 88° |
| 2026-04-23 17:03 | 38.54048 | 68.75739 | 3007 ft | 207 kts | 78° |
| 2026-04-23 17:04 | 38.54340 | 68.77514 | 2967 ft | 203 kts | 82° |
| 2026-04-23 17:04 | 38.54397 | 68.79305 | 2794 ft | 201 kts | 92° |
| 2026-04-23 17:04 | 38.54366 | 68.81089 | 2625 ft | 200 kts | 90° |
| 2026-04-23 17:04 | 38.54385 | 68.82784 | 2575 ft | 173 kts | 96° |
| 2026-04-23 17:05 | 38.54435 | 68.83938 | 2579 ft | 60 kts | 75° |
| 2026-04-23 17:05 | 38.54397 | 68.84105 | 2578 ft | 20 kts | 174° |
| 2026-04-23 17:05 | 38.54346 | 68.84000 | 2578 ft | 27 kts | 284° |
| 2026-04-23 17:05 | 38.54370 | 68.83651 | 2576 ft | 45 kts | 269° |
| 2026-04-23 17:06 | 38.54370 | 68.83269 | 2581 ft | 42 kts | 270° |
| 2026-04-23 17:06 | 38.54368 | 68.82873 | 2583 ft | 46 kts | 269° |
| 2026-04-23 17:06 | 38.54367 | 68.82459 | 2577 ft | 49 kts | 270° |
| 2026-04-23 17:06 | 38.54380 | 68.82117 | 2578 ft | 12 kts | 306° |
| 2026-04-23 17:07 | 38.54477 | 68.82044 | 2578 ft | 34 kts | 321° |
| 2026-04-23 17:07 | 38.54713 | 68.81809 | 2576 ft | 45 kts | 321° |
| 2026-04-23 17:07 | 38.54811 | 68.81594 | 2579 ft | 14 kts | 244° |
| 2026-04-23 17:07 | 38.54750 | 68.81590 | 2580 ft | 14 kts | 161° |
| 2026-04-23 17:08 | 38.54701 | 68.81525 | 2582 ft | 10 kts | 257° |
| 2026-04-23 17:08 | 38.54704 | 68.81447 | 2576 ft | 8 kts | 314° |
| 2026-04-23 17:08 | 38.54747 | 68.81415 | 2577 ft | 7 kts | 343° |
| 2026-04-23 17:08 | 38.54789 | 68.81414 | 2580 ft | 6 kts | 0° |
| 2026-04-23 17:09 | 38.54801 | 68.81414 | 2582 ft | 0 kts | 360° |
| 2026-04-23 17:53 | 55.41168 | 37.89583 | 543 ft | 0 kts | 57° |